Shell Beach, California
Current Conditions -  °F | °C
As of 5:17 AM on Friday 24 Oct 2014 (Local Time) from KSBP Reporting Station
Moderate Fog Moderate Fog  
Wind Chill: 50°   Ceiling: 200
Heat Index: 50°   Visibility: 0.25mi
Dew Point: 50°   Wind: 3mph
Humidity: 100%   Direction: 90°E
Pressure: 29.98"   Gusts: NA
Location:  35.1597°N, 120.657°W
Report Text: KSBP 241217Z AUTO 09003KT 1/4SM FG VV002 10/10 A2998 RMK AO2 T01000100
Loading
Personal Weather Stations






























Interactive Weather Map
Tropical Storm Tracking
New forecast layout! Learn more

10-Day Weather Forecast

Advertisements
Track Severe Weather on mobile